sensor_id;sensor_type;location;lat;lon;timestamp;pressure;altitude;pressure_sealevel;temperature;humidity
59787;BME280;45672;51.612;5.536;2022-12-07T00:00:25;101632.00;;;3.83;100.00
59787;BME280;45672;51.612;5.536;2022-12-07T00:02:50;101628.63;;;3.81;100.00
59787;BME280;45672;51.612;5.536;2022-12-07T00:05:15;101630.47;;;3.79;100.00
59787;BME280;45672;51.612;5.536;2022-12-07T00:07:41;101636.78;;;3.76;100.00
59787;BME280;45672;51.612;5.536;2022-12-07T00:10:06;101631.78;;;3.72;100.00
59787;BME280;45672;51.612;5.536;2022-12-07T00:12:31;101636.31;;;3.70;100.00
59787;BME280;45672;51.612;5.536;2022-12-07T00:14:57;101628.75;;;3.63;100.00
59787;BME280;45672;51.612;5.536;2022-12-07T00:17:22;101628.00;;;3.61;100.00
59787;BME280;45672;51.612;5.536;2022-12-07T00:19:47;101626.41;;;3.59;100.00
59787;BME280;45672;51.612;5.536;2022-12-07T00:22:13;101625.56;;;3.58;100.00
59787;BME280;45672;51.612;5.536;2022-12-07T00:24:38;101616.91;;;3.56;100.00
59787;BME280;45672;51.612;5.536;2022-12-07T00:27:03;101615.28;;;3.54;100.00
59787;BME280;45672;51.612;5.536;2022-12-07T00:29:28;101615.47;;;3.51;100.00
59787;BME280;45672;51.612;5.536;2022-12-07T00:31:54;101615.56;;;3.49;100.00
59787;BME280;45672;51.612;5.536;2022-12-07T00:34:21;101606.84;;;3.49;100.00
59787;BME280;45672;51.612;5.536;2022-12-07T00:36:47;101613.81;;;3.50;100.00
59787;BME280;45672;51.612;5.536;2022-12-07T00:39:13;101603.34;;;3.48;100.00
59787;BME280;45672;51.612;5.536;2022-12-07T00:41:38;101609.38;;;3.50;100.00
59787;BME280;45672;51.612;5.536;2022-12-07T00:44:03;101605.22;;;3.46;100.00
59787;BME280;45672;51.612;5.536;2022-12-07T00:46:29;101616.69;;;3.45;100.00
59787;BME280;45672;51.612;5.536;2022-12-07T00:48:55;101614.91;;;3.45;100.00
59787;BME280;45672;51.612;5.536;2022-12-07T00:51:23;101613.97;;;3.47;100.00
59787;BME280;45672;51.612;5.536;2022-12-07T00:53:49;101615.19;;;3.55;100.00
59787;BME280;45672;51.612;5.536;2022-12-07T00:56:24;101602.63;;;3.60;100.00
59787;BME280;45672;51.612;5.536;2022-12-07T00:58:54;101604.31;;;3.61;100.00
59787;BME280;45672;51.612;5.536;2022-12-07T01:01:20;101601.69;;;3.61;100.00
59787;BME280;45672;51.612;5.536;2022-12-07T01:03:46;101606.59;;;3.68;100.00
59787;BME280;45672;51.612;5.536;2022-12-07T01:06:15;101604.97;;;3.65;100.00
59787;BME280;45672;51.612;5.536;2022-12-07T01:08:40;101595.56;;;3.61;100.00
59787;BME280;45672;51.612;5.536;2022-12-07T01:11:07;101594.91;;;3.57;100.00
59787;BME280;45672;51.612;5.536;2022-12-07T01:13:35;101593.41;;;3.53;100.00
59787;BME280;45672;51.612;5.536;2022-12-07T01:16:03;101595.28;;;3.51;100.00
59787;BME280;45672;51.612;5.536;2022-12-07T01:18:30;101608.59;;;3.48;100.00
59787;BME280;45672;51.612;5.536;2022-12-07T01:21:06;101603.53;;;3.45;100.00
59787;BME280;45672;51.612;5.536;2022-12-07T01:23:34;101613.31;;;3.43;100.00
59787;BME280;45672;51.612;5.536;2022-12-07T01:26:02;101617.78;;;3.41;100.00
59787;BME280;45672;51.612;5.536;2022-12-07T01:28:28;101625.44;;;3.45;100.00
59787;BME280;45672;51.612;5.536;2022-12-07T01:31:04;101610.59;;;3.44;100.00
59787;BME280;45672;51.612;5.536;2022-12-07T01:33:32;101603.63;;;3.43;100.00
59787;BME280;45672;51.612;5.536;2022-12-07T01:36:11;101606.34;;;3.42;100.00
59787;BME280;45672;51.612;5.536;2022-12-07T01:38:38;101610.84;;;3.40;100.00
59787;BME280;45672;51.612;5.536;2022-12-07T01:41:03;101603.91;;;3.39;100.00
59787;BME280;45672;51.612;5.536;2022-12-07T01:43:31;101599.56;;;3.38;100.00
59787;BME280;45672;51.612;5.536;2022-12-07T01:45:56;101608.59;;;3.48;100.00
59787;BME280;45672;51.612;5.536;2022-12-07T01:48:27;101595.84;;;3.56;100.00
59787;BME280;45672;51.612;5.536;2022-12-07T01:50:55;101604.25;;;3.63;100.00
59787;BME280;45672;51.612;5.536;2022-12-07T01:53:24;101607.50;;;3.67;100.00
59787;BME280;45672;51.612;5.536;2022-12-07T01:55:51;101599.56;;;3.68;100.00
59787;BME280;45672;51.612;5.536;2022-12-07T01:58:18;101602.09;;;3.70;100.00
59787;BME280;45672;51.612;5.536;2022-12-07T02:00:43;101609.03;;;3.71;100.00
59787;BME280;45672;51.612;5.536;2022-12-07T02:03:32;101601.91;;;3.73;100.00
59787;BME280;45672;51.612;5.536;2022-12-07T02:06:00;101594.94;;;3.72;100.00
59787;BME280;45672;51.612;5.536;2022-12-07T02:08:25;101601.91;;;3.73;100.00
59787;BME280;45672;51.612;5.536;2022-12-07T02:10:51;101599.38;;;3.71;100.00
59787;BME280;45672;51.612;5.536;2022-12-07T02:13:20;101592.59;;;3.67;100.00
59787;BME280;45672;51.612;5.536;2022-12-07T02:16:17;101602.44;;;3.63;100.00
59787;BME280;45672;51.612;5.536;2022-12-07T02:21:27;101600.72;;;3.48;100.00
59787;BME280;45672;51.612;5.536;2022-12-07T02:24:13;101600.91;;;3.45;100.00
59787;BME280;45672;51.612;5.536;2022-12-07T02:29:43;101598.03;;;3.34;100.00
59787;BME280;45672;51.612;5.536;2022-12-07T02:32:15;101603.41;;;3.32;100.00
59787;BME280;45672;51.612;5.536;2022-12-07T02:35:00;101598.13;;;3.32;100.00
59787;BME280;45672;51.612;5.536;2022-12-07T02:37:49;101598.22;;;3.31;100.00
59787;BME280;45672;51.612;5.536;2022-12-07T02:40:28;101594.75;;;3.30;100.00
59787;BME280;45672;51.612;5.536;2022-12-07T02:43:14;101592.97;;;3.31;100.00
59787;BME280;45672;51.612;5.536;2022-12-07T02:45:42;101595.78;;;3.27;100.00
59787;BME280;45672;51.612;5.536;2022-12-07T02:48:10;101584.50;;;3.25;100.00
59787;BME280;45672;51.612;5.536;2022-12-07T02:50:37;101594.25;;;3.23;100.00
59787;BME280;45672;51.612;5.536;2022-12-07T02:53:02;101587.47;;;3.19;100.00
59787;BME280;45672;51.612;5.536;2022-12-07T02:55:30;101580.72;;;3.15;100.00
59787;BME280;45672;51.612;5.536;2022-12-07T03:00:44;101595.56;;;3.16;100.00
59787;BME280;45672;51.612;5.536;2022-12-07T03:03:13;101591.22;;;3.15;100.00
59787;BME280;45672;51.612;5.536;2022-12-07T03:05:59;101590.38;;;3.15;100.00
59787;BME280;45672;51.612;5.536;2022-12-07T03:08:46;101591.81;;;3.20;100.00
59787;BME280;45672;51.612;5.536;2022-12-07T03:11:23;101602.75;;;3.28;100.00
59787;BME280;45672;51.612;5.536;2022-12-07T03:14:02;101602.28;;;3.36;100.00
59787;BME280;45672;51.612;5.536;2022-12-07T03:16:42;101593.97;;;3.44;100.00
59787;BME280;45672;51.612;5.536;2022-12-07T03:19:13;101595.38;;;3.50;100.00
59787;BME280;45672;51.612;5.536;2022-12-07T03:21:42;101596.88;;;3.54;100.00
59787;BME280;45672;51.612;5.536;2022-12-07T03:24:17;101603.75;;;3.56;100.00
59787;BME280;45672;51.612;5.536;2022-12-07T03:27:01;101592.28;;;3.57;100.00
59787;BME280;45672;51.612;5.536;2022-12-07T03:29:36;101599.41;;;3.55;100.00
59787;BME280;45672;51.612;5.536;2022-12-07T03:32:25;101592.47;;;3.54;100.00
59787;BME280;45672;51.612;5.536;2022-12-07T03:35:01;101594.25;;;3.54;100.00
59787;BME280;45672;51.612;5.536;2022-12-07T03:37:33;101585.41;;;3.55;100.00
59787;BME280;45672;51.612;5.536;2022-12-07T03:40:21;101580.75;;;3.60;100.00
59787;BME280;45672;51.612;5.536;2022-12-07T03:42:48;101580.66;;;3.61;100.00
59787;BME280;45672;51.612;5.536;2022-12-07T03:45:14;101579.34;;;3.69;100.00
59787;BME280;45672;51.612;5.536;2022-12-07T03:47:53;101580.06;;;3.71;100.00
59787;BME280;45672;51.612;5.536;2022-12-07T03:50:30;101572.84;;;3.74;100.00
59787;BME280;45672;51.612;5.536;2022-12-07T03:53:04;101578.03;;;3.76;100.00
59787;BME280;45672;51.612;5.536;2022-12-07T03:55:32;101580.56;;;3.77;100.00
59787;BME280;45672;51.612;5.536;2022-12-07T03:58:04;101573.50;;;3.78;100.00
59787;BME280;45672;51.612;5.536;2022-12-07T04:00:31;101583.88;;;3.81;100.00
59787;BME280;45672;51.612;5.536;2022-12-07T04:02:56;101577.66;;;3.82;100.00
59787;BME280;45672;51.612;5.536;2022-12-07T04:05:22;101572.38;;;3.82;100.00
59787;BME280;45672;51.612;5.536;2022-12-07T04:07:47;101571.53;;;3.82;100.00
59787;BME280;45672;51.612;5.536;2022-12-07T04:10:13;101572.38;;;3.82;100.00
59787;BME280;45672;51.612;5.536;2022-12-07T04:12:38;101575.00;;;3.82;100.00
59787;BME280;45672;51.612;5.536;2022-12-07T04:15:04;101582.91;;;3.82;100.00
59787;BME280;45672;51.612;5.536;2022-12-07T04:17:30;101584.81;;;3.80;100.00
59787;BME280;45672;51.612;5.536;2022-12-07T04:19:55;101595.34;;;3.80;100.00
59787;BME280;45672;51.612;5.536;2022-12-07T04:22:21;101573.88;;;3.72;100.00
59787;BME280;45672;51.612;5.536;2022-12-07T04:24:46;101580.06;;;3.71;100.00
59787;BME280;45672;51.612;5.536;2022-12-07T04:27:11;101577.63;;;3.68;100.00
59787;BME280;45672;51.612;5.536;2022-12-07T04:29:37;101582.81;;;3.69;100.00
59787;BME280;45672;51.612;5.536;2022-12-07T04:32:02;101585.34;;;3.71;100.00
59787;BME280;45672;51.612;5.536;2022-12-07T04:34:28;101574.81;;;3.71;100.00
59787;BME280;45672;51.612;5.536;2022-12-07T04:36:53;101581.59;;;3.75;100.00
59787;BME280;45672;51.612;5.536;2022-12-07T04:39:25;101579.72;;;3.77;100.00
59787;BME280;45672;51.612;5.536;2022-12-07T04:41:51;101577.09;;;3.77;100.00
59787;BME280;45672;51.612;5.536;2022-12-07T04:44:17;101567.41;;;3.77;100.00
59787;BME280;45672;51.612;5.536;2022-12-07T04:46:44;101580.66;;;3.76;100.00
59787;BME280;45672;51.612;5.536;2022-12-07T04:49:10;101564.97;;;3.74;100.00
59787;BME280;45672;51.612;5.536;2022-12-07T04:51:36;101568.72;;;3.70;100.00
59787;BME280;45672;51.612;5.536;2022-12-07T04:54:02;101563.94;;;3.62;100.00
59787;BME280;45672;51.612;5.536;2022-12-07T04:56:27;101568.59;;;3.57;100.00
59787;BME280;45672;51.612;5.536;2022-12-07T04:58:54;101573.28;;;3.52;100.00
59787;BME280;45672;51.612;5.536;2022-12-07T05:01:20;101570.28;;;3.44;100.00
59787;BME280;45672;51.612;5.536;2022-12-07T05:03:46;101569.69;;;3.39;100.00
59787;BME280;45672;51.612;5.536;2022-12-07T05:06:12;101555.88;;;3.35;100.00
59787;BME280;45672;51.612;5.536;2022-12-07T05:08:38;101559.63;;;3.31;100.00
59787;BME280;45672;51.612;5.536;2022-12-07T05:11:04;101559.78;;;3.28;100.00
59787;BME280;45672;51.612;5.536;2022-12-07T05:13:31;101557.25;;;3.26;100.00
59787;BME280;45672;51.612;5.536;2022-12-07T05:15:56;101565.16;;;3.26;100.00
59787;BME280;45672;51.612;5.536;2022-12-07T05:18:21;101562.63;;;3.25;100.00
59787;BME280;45672;51.612;5.536;2022-12-07T05:20:47;101559.34;;;3.21;100.00
59787;BME280;45672;51.612;5.536;2022-12-07T05:23:12;101562.69;;;3.23;100.00
59787;BME280;45672;51.612;5.536;2022-12-07T05:25:38;101560.91;;;3.24;100.00
59787;BME280;45672;51.612;5.536;2022-12-07T05:28:04;101567.03;;;3.24;100.00
59787;BME280;45672;51.612;5.536;2022-12-07T05:30:41;101560.75;;;3.27;100.00
59787;BME280;45672;51.612;5.536;2022-12-07T05:33:26;101568.56;;;3.28;100.00
59787;BME280;45672;51.612;5.536;2022-12-07T05:35:51;101570.31;;;3.28;100.00
59787;BME280;45672;51.612;5.536;2022-12-07T05:38:17;101566.75;;;3.29;100.00
59787;BME280;45672;51.612;5.536;2022-12-07T05:40:42;101568.56;;;3.28;100.00
59787;BME280;45672;51.612;5.536;2022-12-07T05:43:07;101559.69;;;3.30;100.00
59787;BME280;45672;51.612;5.536;2022-12-07T05:45:33;101557.06;;;3.30;100.00
59787;BME280;45672;51.612;5.536;2022-12-07T05:47:58;101558.03;;;3.28;100.00
59787;BME280;45672;51.612;5.536;2022-12-07T05:50:23;101553.78;;;3.26;100.00
59787;BME280;45672;51.612;5.536;2022-12-07T05:52:49;101553.50;;;3.31;100.00
59787;BME280;45672;51.612;5.536;2022-12-07T05:55:14;101547.31;;;3.32;100.00
59787;BME280;45672;51.612;5.536;2022-12-07T05:57:40;101553.59;;;3.29;100.00
59787;BME280;45672;51.612;5.536;2022-12-07T06:00:25;101538.19;;;3.23;100.00
59787;BME280;45672;51.612;5.536;2022-12-07T06:02:50;101536.59;;;3.20;100.00
59787;BME280;45672;51.612;5.536;2022-12-07T06:05:15;101549.16;;;3.15;100.00
59787;BME280;45672;51.612;5.536;2022-12-07T06:07:41;101549.44;;;3.10;100.00
59787;BME280;45672;51.612;5.536;2022-12-07T06:10:06;101556.63;;;3.07;100.00
59787;BME280;45672;51.612;5.536;2022-12-07T06:12:32;101549.78;;;3.04;100.00
59787;BME280;45672;51.612;5.536;2022-12-07T06:15:00;101549.09;;;3.01;100.00
59787;BME280;45672;51.612;5.536;2022-12-07T06:17:26;101538.88;;;2.96;100.00
59787;BME280;45672;51.612;5.536;2022-12-07T06:19:51;101544.22;;;2.95;100.00
59787;BME280;45672;51.612;5.536;2022-12-07T06:22:17;101547.78;;;2.93;100.00
59787;BME280;45672;51.612;5.536;2022-12-07T06:24:43;101553.22;;;2.90;100.00
59787;BME280;45672;51.612;5.536;2022-12-07T06:27:09;101558.56;;;2.89;100.00
59787;BME280;45672;51.612;5.536;2022-12-07T06:29:35;101556.94;;;2.86;100.00
59787;BME280;45672;51.612;5.536;2022-12-07T06:32:00;101558.56;;;2.89;100.00
59787;BME280;45672;51.612;5.536;2022-12-07T06:34:26;101570.50;;;2.95;100.00
59787;BME280;45672;51.612;5.536;2022-12-07T06:36:53;101558.78;;;3.00;100.00
59787;BME280;45672;51.612;5.536;2022-12-07T06:39:22;101555.97;;;3.03;100.00
59787;BME280;45672;51.612;5.536;2022-12-07T06:41:48;101559.44;;;3.04;100.00
59787;BME280;45672;51.612;5.536;2022-12-07T06:44:13;101561.25;;;3.03;100.00
59787;BME280;45672;51.612;5.536;2022-12-07T06:46:39;101566.59;;;3.02;100.00
59787;BME280;45672;51.612;5.536;2022-12-07T06:49:04;101563.19;;;3.00;100.00
59787;BME280;45672;51.612;5.536;2022-12-07T06:51:31;101562.25;;;3.01;100.00
59787;BME280;45672;51.612;5.536;2022-12-07T06:53:57;101556.25;;;2.99;100.00
59787;BME280;45672;51.612;5.536;2022-12-07T06:56:22;101557.28;;;2.96;100.00
59787;BME280;45672;51.612;5.536;2022-12-07T06:58:48;101562.44;;;2.98;100.00
59787;BME280;45672;51.612;5.536;2022-12-07T07:01:15;101558.09;;;2.97;100.00
59787;BME280;45672;51.612;5.536;2022-12-07T07:03:41;101557.28;;;2.96;100.00
59787;BME280;45672;51.612;5.536;2022-12-07T07:06:07;101570.13;;;3.01;100.00
59787;BME280;45672;51.612;5.536;2022-12-07T07:08:33;101570.81;;;3.04;100.00
59787;BME280;45672;51.612;5.536;2022-12-07T07:10:59;101568.09;;;3.06;100.00
59787;BME280;45672;51.612;5.536;2022-12-07T07:13:24;101561.81;;;3.08;100.00
59787;BME280;45672;51.612;5.536;2022-12-07T07:15:49;101563.41;;;3.11;100.00
59787;BME280;45672;51.612;5.536;2022-12-07T07:18:15;101561.66;;;3.12;100.00
59787;BME280;45672;51.612;5.536;2022-12-07T07:20:40;101559.94;;;3.10;100.00
59787;BME280;45672;51.612;5.536;2022-12-07T07:23:06;101572.91;;;3.14;100.00
59787;BME280;45672;51.612;5.536;2022-12-07T07:25:32;101562.47;;;3.12;100.00
59787;BME280;45672;51.612;5.536;2022-12-07T07:27:57;101562.28;;;3.15;100.00
59787;BME280;45672;51.612;5.536;2022-12-07T07:30:23;101564.00;;;3.16;100.00
59787;BME280;45672;51.612;5.536;2022-12-07T07:32:48;101572.63;;;3.18;100.00
59787;BME280;45672;51.612;5.536;2022-12-07T07:35:14;101572.72;;;3.17;100.00
59787;BME280;45672;51.612;5.536;2022-12-07T07:37:39;101562.13;;;3.18;100.00
59787;BME280;45672;51.612;5.536;2022-12-07T07:40:06;101571.72;;;3.19;100.00
59787;BME280;45672;51.612;5.536;2022-12-07T07:42:32;101569.84;;;3.21;100.00
59787;BME280;45672;51.612;5.536;2022-12-07T07:44:57;101569.91;;;3.20;100.00
59787;BME280;45672;51.612;5.536;2022-12-07T07:47:23;101575.34;;;3.17;100.00
59787;BME280;45672;51.612;5.536;2022-12-07T07:49:48;101579.09;;;3.13;100.00
59787;BME280;45672;51.612;5.536;2022-12-07T07:52:14;101573.09;;;3.10;100.00
59787;BME280;45672;51.612;5.536;2022-12-07T07:54:39;101571.56;;;3.06;100.00
59787;BME280;45672;51.612;5.536;2022-12-07T07:57:04;101574.88;;;3.10;100.00
59787;BME280;45672;51.612;5.536;2022-12-07T07:59:31;101580.97;;;3.10;100.00
59787;BME280;45672;51.612;5.536;2022-12-07T08:01:56;101578.06;;;3.15;100.00
59787;BME280;45672;51.612;5.536;2022-12-07T08:04:21;101569.25;;;3.16;100.00
59787;BME280;45672;51.612;5.536;2022-12-07T08:06:47;101570.88;;;3.19;100.00
59787;BME280;45672;51.612;5.536;2022-12-07T08:09:13;101574.16;;;3.22;100.00
59787;BME280;45672;51.612;5.536;2022-12-07T08:11:38;101575.47;;;3.30;100.00
59787;BME280;45672;51.612;5.536;2022-12-07T08:14:04;101574.03;;;3.40;100.00
59787;BME280;45672;51.612;5.536;2022-12-07T08:16:29;101581.19;;;3.52;100.00
59787;BME280;45672;51.612;5.536;2022-12-07T08:18:54;101573.59;;;3.62;100.00
59787;BME280;45672;51.612;5.536;2022-12-07T08:21:20;101577.81;;;3.65;100.00
59787;BME280;45672;51.612;5.536;2022-12-07T08:23:45;101578.66;;;3.65;100.00
59787;BME280;45672;51.612;5.536;2022-12-07T08:26:13;101586.47;;;3.67;100.00
59787;BME280;45672;51.612;5.536;2022-12-07T08:28:39;101581.19;;;3.67;100.00
59787;BME280;45672;51.612;5.536;2022-12-07T08:31:11;101591.38;;;3.73;100.00
59787;BME280;45672;51.612;5.536;2022-12-07T08:33:38;101583.28;;;3.76;100.00
59787;BME280;45672;51.612;5.536;2022-12-07T08:36:06;101586.31;;;3.84;100.00
59787;BME280;45672;51.612;5.536;2022-12-07T08:38:34;101585.00;;;3.91;100.00
59787;BME280;45672;51.612;5.536;2022-12-07T08:40:59;101586.78;;;4.05;100.00
59787;BME280;45672;51.612;5.536;2022-12-07T08:43:25;101593.56;;;4.09;100.00
59787;BME280;45672;51.612;5.536;2022-12-07T08:49:10;101587.06;;;4.15;100.00
59787;BME280;45672;51.612;5.536;2022-12-07T08:51:38;101594.13;;;4.14;100.00
59787;BME280;45672;51.612;5.536;2022-12-07T08:54:06;101583.19;;;4.06;100.00
59787;BME280;45672;51.612;5.536;2022-12-07T08:56:33;101583.69;;;3.99;100.00
59787;BME280;45672;51.612;5.536;2022-12-07T08:58:58;101589.16;;;3.95;100.00
59787;BME280;45672;51.612;5.536;2022-12-07T09:01:24;101588.38;;;3.93;100.00
59787;BME280;45672;51.612;5.536;2022-12-07T09:03:49;101586.75;;;3.91;100.00
59787;BME280;45672;51.612;5.536;2022-12-07T09:06:15;101576.72;;;3.97;100.00
59787;BME280;45672;51.612;5.536;2022-12-07T09:08:46;101575.88;;;4.11;100.00
59787;BME280;45672;51.612;5.536;2022-12-07T09:11:12;101581.69;;;4.31;100.00
59787;BME280;45672;51.612;5.536;2022-12-07T09:13:37;101577.22;;;4.46;100.00
59787;BME280;45672;51.612;5.536;2022-12-07T09:16:03;101579.75;;;4.47;100.00
59787;BME280;45672;51.612;5.536;2022-12-07T09:18:28;101590.13;;;4.51;100.00
59787;BME280;45672;51.612;5.536;2022-12-07T09:20:53;101588.81;;;4.58;100.00
59787;BME280;45672;51.612;5.536;2022-12-07T09:23:19;101589.81;;;4.70;100.00
59787;BME280;45672;51.612;5.536;2022-12-07T09:25:44;101587.63;;;4.76;100.00
59787;BME280;45672;51.612;5.536;2022-12-07T09:28:09;101592.38;;;4.84;100.00
59787;BME280;45672;51.612;5.536;2022-12-07T09:30:35;101598.22;;;4.89;100.00
59787;BME280;45672;51.612;5.536;2022-12-07T09:33:00;101595.03;;;4.84;100.00
59787;BME280;45672;51.612;5.536;2022-12-07T09:35:26;101589.19;;;4.79;100.00
59787;BME280;45672;51.612;5.536;2022-12-07T09:37:52;101601.25;;;4.83;100.00
59787;BME280;45672;51.612;5.536;2022-12-07T09:40:20;101595.91;;;4.97;100.00
59787;BME280;45672;51.612;5.536;2022-12-07T09:42:49;101588.78;;;5.12;100.00
59787;BME280;45672;51.612;5.536;2022-12-07T09:45:26;101590.91;;;5.20;100.00
59787;BME280;45672;51.612;5.536;2022-12-07T09:47:52;101590.91;;;5.20;100.00
59787;BME280;45672;51.612;5.536;2022-12-07T09:50:26;101586.06;;;5.14;100.00
59787;BME280;45672;51.612;5.536;2022-12-07T09:52:53;101592.13;;;5.01;100.00
59787;BME280;45672;51.612;5.536;2022-12-07T09:55:26;101588.00;;;4.97;100.00
59787;BME280;45672;51.612;5.536;2022-12-07T09:57:52;101594.75;;;5.01;100.00
59787;BME280;45672;51.612;5.536;2022-12-07T10:00:20;101593.63;;;5.06;100.00
59787;BME280;45672;51.612;5.536;2022-12-07T10:02:51;101578.47;;;5.09;100.00
59787;BME280;45672;51.612;5.536;2022-12-07T10:05:22;101583.84;;;5.08;100.00
59787;BME280;45672;51.612;5.536;2022-12-07T10:07:49;101579.09;;;5.13;100.00
59787;BME280;45672;51.612;5.536;2022-12-07T10:10:23;101576.28;;;5.29;100.00
59787;BME280;45672;51.612;5.536;2022-12-07T10:13:14;101580.00;;;5.52;100.00
59787;BME280;45672;51.612;5.536;2022-12-07T10:15:50;101576.22;;;5.56;100.00
59787;BME280;45672;51.612;5.536;2022-12-07T10:21:10;101566.59;;;5.55;100.00
59787;BME280;45672;51.612;5.536;2022-12-07T10:23:39;101567.25;;;5.59;100.00
59787;BME280;45672;51.612;5.536;2022-12-07T10:26:27;101565.56;;;5.70;100.00
59787;BME280;45672;51.612;5.536;2022-12-07T10:28:54;101564.06;;;5.79;100.00
59787;BME280;45672;51.612;5.536;2022-12-07T10:31:21;101559.44;;;5.96;100.00
59787;BME280;45672;51.612;5.536;2022-12-07T10:33:52;101559.94;;;6.14;100.00
59787;BME280;45672;51.612;5.536;2022-12-07T10:39:09;101558.88;;;6.16;100.00
59787;BME280;45672;51.612;5.536;2022-12-07T10:41:35;101548.19;;;6.18;100.00
59787;BME280;45672;51.612;5.536;2022-12-07T10:44:00;101548.84;;;6.21;100.00
59787;BME280;45672;51.612;5.536;2022-12-07T10:46:38;101551.38;;;6.23;100.00
59787;BME280;45672;51.612;5.536;2022-12-07T10:49:40;101552.84;;;6.27;100.00
59787;BME280;45672;51.612;5.536;2022-12-07T10:55:25;101536.91;;;6.16;100.00
59787;BME280;45672;51.612;5.536;2022-12-07T10:58:30;101544.63;;;6.19;100.00
59787;BME280;45672;51.612;5.536;2022-12-07T11:01:41;101535.94;;;6.30;100.00
59787;BME280;45672;51.612;5.536;2022-12-07T11:04:36;101541.06;;;6.44;100.00
59787;BME280;45672;51.612;5.536;2022-12-07T11:10:23;101526.50;;;6.38;100.00
59787;BME280;45672;51.612;5.536;2022-12-07T11:13:15;101529.25;;;6.37;100.00
59787;BME280;45672;51.612;5.536;2022-12-07T11:15:53;101518.56;;;6.38;100.00
59787;BME280;45672;51.612;5.536;2022-12-07T11:18:27;101520.53;;;6.48;100.00
59787;BME280;45672;51.612;5.536;2022-12-07T11:21:07;101520.81;;;6.56;100.00
59787;BME280;45672;51.612;5.536;2022-12-07T11:37:20;101495.06;;;6.47;98.63
59787;BME280;45672;51.612;5.536;2022-12-07T11:39:55;101499.00;;;6.41;98.48
59787;BME280;45672;51.612;5.536;2022-12-07T11:42:26;101499.44;;;6.35;98.00
59787;BME280;45672;51.612;5.536;2022-12-07T11:45:02;101495.00;;;6.35;98.90
59787;BME280;45672;51.612;5.536;2022-12-07T11:50:30;101488.38;;;6.30;99.03
59787;BME280;45672;51.612;5.536;2022-12-07T11:53:01;101479.78;;;6.26;98.73
59787;BME280;45672;51.612;5.536;2022-12-07T11:55:48;101486.44;;;6.32;99.29
59787;BME280;45672;51.612;5.536;2022-12-07T11:58:40;101475.97;;;6.30;98.68
59787;BME280;45672;51.612;5.536;2022-12-07T12:03:43;101479.16;;;6.35;100.00
59787;BME280;45672;51.612;5.536;2022-12-07T12:06:09;101476.88;;;6.42;99.93
59787;BME280;45672;51.612;5.536;2022-12-07T12:08:42;101471.16;;;6.48;99.45
59787;BME280;45672;51.612;5.536;2022-12-07T12:19:36;101465.25;;;6.45;99.02
59787;BME280;45672;51.612;5.536;2022-12-07T12:22:25;101461.75;;;6.68;99.16
59787;BME280;45672;51.612;5.536;2022-12-07T12:24:53;101464.94;;;6.96;98.83
59787;BME280;45672;51.612;5.536;2022-12-07T12:27:30;101472.22;;;7.17;96.97
59787;BME280;45672;51.612;5.536;2022-12-07T12:29:59;101472.50;;;7.25;95.52
59787;BME280;45672;51.612;5.536;2022-12-07T12:32:40;101461.03;;;7.24;96.00
59787;BME280;45672;51.612;5.536;2022-12-07T12:40:49;101453.97;;;7.36;95.94
59787;BME280;45672;51.612;5.536;2022-12-07T12:43:40;101449.75;;;7.34;95.65
59787;BME280;45672;51.612;5.536;2022-12-07T12:48:55;101443.81;;;7.19;97.11
59787;BME280;45672;51.612;5.536;2022-12-07T12:51:38;101436.13;;;7.27;96.18
59787;BME280;45672;51.612;5.536;2022-12-07T12:54:29;101436.75;;;7.31;95.88
59787;BME280;45672;51.612;5.536;2022-12-07T12:57:15;101429.66;;;7.42;95.49
59787;BME280;45672;51.612;5.536;2022-12-07T13:05:01;101420.25;;;7.50;91.81
59787;BME280;45672;51.612;5.536;2022-12-07T13:16:36;101409.66;;;7.72;91.54
59787;BME280;45672;51.612;5.536;2022-12-07T13:18:41;101415.22;;;7.69;88.98
59787;BME280;45672;51.612;5.536;2022-12-07T13:26:35;101411.81;;;7.33;90.86
59787;BME280;45672;51.612;5.536;2022-12-07T13:29:13;101395.59;;;7.15;90.19
59787;BME280;45672;51.612;5.536;2022-12-07T13:31:49;101396.66;;;7.01;90.58
59787;BME280;45672;51.612;5.536;2022-12-07T13:37:10;101397.56;;;6.78;91.79
59787;BME280;45672;51.612;5.536;2022-12-07T13:39:49;101401.03;;;6.67;91.82
59787;BME280;45672;51.612;5.536;2022-12-07T13:44:46;101396.28;;;6.48;92.23
59787;BME280;45672;51.612;5.536;2022-12-07T13:52:22;101370.59;;;6.50;92.71
59787;BME280;45672;51.612;5.536;2022-12-07T13:54:55;101374.88;;;6.51;92.59
59787;BME280;45672;51.612;5.536;2022-12-07T13:57:21;101372.03;;;6.54;93.10
59787;BME280;45672;51.612;5.536;2022-12-07T13:59:47;101363.50;;;6.62;93.39
59787;BME280;45672;51.612;5.536;2022-12-07T14:02:27;101363.03;;;6.68;93.56
59787;BME280;45672;51.612;5.536;2022-12-07T14:05:22;101355.59;;;6.73;92.81
59787;BME280;45672;51.612;5.536;2022-12-07T14:10:34;101354.63;;;6.63;92.21
59787;BME280;45672;51.612;5.536;2022-12-07T14:13:02;101358.09;;;6.63;93.24
59787;BME280;45672;51.612;5.536;2022-12-07T14:15:32;101354.00;;;6.59;93.45
59787;BME280;45672;51.612;5.536;2022-12-07T14:18:00;101346.94;;;6.60;94.10
59787;BME280;45672;51.612;5.536;2022-12-07T14:20:30;101351.47;;;6.58;94.57
59787;BME280;45672;51.612;5.536;2022-12-07T14:22:56;101342.47;;;6.49;95.40
59787;BME280;45672;51.612;5.536;2022-12-07T14:25:28;101343.59;;;6.33;97.52
59787;BME280;45672;51.612;5.536;2022-12-07T14:27:56;101362.06;;;6.22;98.67
59787;BME280;45672;51.612;5.536;2022-12-07T14:30:25;101363.94;;;6.09;99.14
59787;BME280;45672;51.612;5.536;2022-12-07T14:32:59;101364.59;;;5.99;99.38
59787;BME280;45672;51.612;5.536;2022-12-07T14:35:26;101377.09;;;5.84;98.61
59787;BME280;45672;51.612;5.536;2022-12-07T14:37:52;101379.38;;;5.65;96.87